sensor_id;sensor_type;location;lat;lon;timestamp;P1;durP1;ratioP1;P2;durP2;ratioP2
37483;SDS011;23337;52.212;9.926;2023-09-19T00:01:32;3.83;;;0.70;;
37483;SDS011;23337;52.212;9.926;2023-09-19T00:03:58;2.03;;;0.87;;
37483;SDS011;23337;52.212;9.926;2023-09-19T00:06:27;0.80;;;0.60;;
37483;SDS011;23337;52.212;9.926;2023-09-19T00:08:56;1.33;;;0.50;;
37483;SDS011;23337;52.212;9.926;2023-09-19T00:11:23;2.23;;;0.83;;
37483;SDS011;23337;52.212;9.926;2023-09-19T00:13:51;1.80;;;1.13;;
37483;SDS011;23337;52.212;9.926;2023-09-19T00:16:17;1.70;;;0.83;;
37483;SDS011;23337;52.212;9.926;2023-09-19T00:18:44;4.03;;;1.10;;
37483;SDS011;23337;52.212;9.926;2023-09-19T00:21:10;2.57;;;0.97;;
37483;SDS011;23337;52.212;9.926;2023-09-19T00:23:36;2.00;;;0.97;;
37483;SDS011;23337;52.212;9.926;2023-09-19T00:26:02;1.33;;;0.97;;
37483;SDS011;23337;52.212;9.926;2023-09-19T00:28:29;2.37;;;1.07;;
37483;SDS011;23337;52.212;9.926;2023-09-19T00:30:55;1.53;;;1.20;;
37483;SDS011;23337;52.212;9.926;2023-09-19T00:33:22;1.80;;;1.00;;
37483;SDS011;23337;52.212;9.926;2023-09-19T00:35:53;3.17;;;1.00;;
37483;SDS011;23337;52.212;9.926;2023-09-19T00:38:19;4.00;;;1.10;;
37483;SDS011;23337;52.212;9.926;2023-09-19T00:40:47;2.27;;;1.33;;
37483;SDS011;23337;52.212;9.926;2023-09-19T00:43:13;4.27;;;1.57;;
37483;SDS011;23337;52.212;9.926;2023-09-19T00:45:43;2.33;;;1.53;;
37483;SDS011;23337;52.212;9.926;2023-09-19T00:48:10;5.03;;;2.03;;
37483;SDS011;23337;52.212;9.926;2023-09-19T00:50:37;3.60;;;2.40;;
37483;SDS011;23337;52.212;9.926;2023-09-19T00:53:06;7.30;;;2.87;;
37483;SDS011;23337;52.212;9.926;2023-09-19T00:55:34;3.70;;;2.10;;
37483;SDS011;23337;52.212;9.926;2023-09-19T00:58:02;3.30;;;2.03;;
37483;SDS011;23337;52.212;9.926;2023-09-19T01:00:28;3.10;;;2.00;;
37483;SDS011;23337;52.212;9.926;2023-09-19T01:02:54;3.03;;;2.40;;
37483;SDS011;23337;52.212;9.926;2023-09-19T01:05:20;4.53;;;2.17;;
37483;SDS011;23337;52.212;9.926;2023-09-19T01:07:48;4.30;;;2.20;;
37483;SDS011;23337;52.212;9.926;2023-09-19T01:10:15;4.00;;;2.30;;
37483;SDS011;23337;52.212;9.926;2023-09-19T01:12:45;3.47;;;2.87;;
37483;SDS011;23337;52.212;9.926;2023-09-19T01:15:18;2.80;;;2.20;;
37483;SDS011;23337;52.212;9.926;2023-09-19T01:17:53;5.40;;;2.80;;
37483;SDS011;23337;52.212;9.926;2023-09-19T01:20:39;5.17;;;3.10;;
37483;SDS011;23337;52.212;9.926;2023-09-19T01:23:14;4.53;;;2.97;;
37483;SDS011;23337;52.212;9.926;2023-09-19T01:28:58;4.57;;;3.23;;
37483;SDS011;23337;52.212;9.926;2023-09-19T01:31:03;4.97;;;2.80;;
37483;SDS011;23337;52.212;9.926;2023-09-19T01:36:16;4.77;;;2.40;;
37483;SDS011;23337;52.212;9.926;2023-09-19T01:38:42;4.13;;;2.43;;
37483;SDS011;23337;52.212;9.926;2023-09-19T01:41:10;3.17;;;2.17;;
37483;SDS011;23337;52.212;9.926;2023-09-19T01:43:46;6.07;;;2.77;;
37483;SDS011;23337;52.212;9.926;2023-09-19T01:51:40;4.90;;;2.93;;
37483;SDS011;23337;52.212;9.926;2023-09-19T01:54:09;7.70;;;3.10;;
37483;SDS011;23337;52.212;9.926;2023-09-19T01:56:42;7.20;;;3.23;;
37483;SDS011;23337;52.212;9.926;2023-09-19T01:59:10;6.70;;;3.10;;
37483;SDS011;23337;52.212;9.926;2023-09-19T02:01:37;8.03;;;3.33;;
37483;SDS011;23337;52.212;9.926;2023-09-19T02:04:03;9.43;;;3.63;;
37483;SDS011;23337;52.212;9.926;2023-09-19T02:06:30;7.43;;;3.13;;
37483;SDS011;23337;52.212;9.926;2023-09-19T02:08:55;7.70;;;2.90;;
37483;SDS011;23337;52.212;9.926;2023-09-19T02:11:21;6.80;;;3.00;;
37483;SDS011;23337;52.212;9.926;2023-09-19T02:13:47;5.87;;;2.80;;
37483;SDS011;23337;52.212;9.926;2023-09-19T02:16:18;5.30;;;2.40;;
37483;SDS011;23337;52.212;9.926;2023-09-19T02:18:44;6.13;;;2.33;;
37483;SDS011;23337;52.212;9.926;2023-09-19T02:21:11;6.33;;;3.00;;
37483;SDS011;23337;52.212;9.926;2023-09-19T02:23:37;7.37;;;3.27;;
37483;SDS011;23337;52.212;9.926;2023-09-19T02:26:03;8.77;;;3.73;;
37483;SDS011;23337;52.212;9.926;2023-09-19T02:28:30;7.13;;;3.50;;
37483;SDS011;23337;52.212;9.926;2023-09-19T02:30:57;4.07;;;3.37;;
37483;SDS011;23337;52.212;9.926;2023-09-19T02:33:23;9.43;;;4.00;;
37483;SDS011;23337;52.212;9.926;2023-09-19T02:35:49;5.37;;;3.17;;
37483;SDS011;23337;52.212;9.926;2023-09-19T02:38:15;6.97;;;4.10;;
37483;SDS011;23337;52.212;9.926;2023-09-19T02:40:46;5.00;;;3.43;;
37483;SDS011;23337;52.212;9.926;2023-09-19T02:43:12;10.67;;;3.97;;
37483;SDS011;23337;52.212;9.926;2023-09-19T02:45:38;11.07;;;3.57;;
37483;SDS011;23337;52.212;9.926;2023-09-19T02:48:04;7.80;;;3.83;;
37483;SDS011;23337;52.212;9.926;2023-09-19T02:50:30;3.77;;;3.47;;
37483;SDS011;23337;52.212;9.926;2023-09-19T02:52:56;6.90;;;3.63;;
37483;SDS011;23337;52.212;9.926;2023-09-19T02:55:22;8.60;;;3.50;;
37483;SDS011;23337;52.212;9.926;2023-09-19T02:57:48;5.60;;;3.50;;
37483;SDS011;23337;52.212;9.926;2023-09-19T03:00:15;7.07;;;3.77;;
37483;SDS011;23337;52.212;9.926;2023-09-19T03:02:41;5.63;;;3.27;;
37483;SDS011;23337;52.212;9.926;2023-09-19T03:05:09;4.97;;;3.03;;
37483;SDS011;23337;52.212;9.926;2023-09-19T03:07:36;8.37;;;3.83;;
37483;SDS011;23337;52.212;9.926;2023-09-19T03:10:03;8.20;;;3.90;;
37483;SDS011;23337;52.212;9.926;2023-09-19T03:12:30;7.10;;;3.83;;
37483;SDS011;23337;52.212;9.926;2023-09-19T03:14:56;4.97;;;3.53;;
37483;SDS011;23337;52.212;9.926;2023-09-19T03:17:23;5.73;;;2.70;;
37483;SDS011;23337;52.212;9.926;2023-09-19T03:19:49;6.03;;;2.93;;
37483;SDS011;23337;52.212;9.926;2023-09-19T03:22:15;4.27;;;2.87;;
37483;SDS011;23337;52.212;9.926;2023-09-19T03:24:41;6.80;;;3.23;;
37483;SDS011;23337;52.212;9.926;2023-09-19T03:27:09;3.33;;;3.03;;
37483;SDS011;23337;52.212;9.926;2023-09-19T03:29:35;3.50;;;2.97;;
37483;SDS011;23337;52.212;9.926;2023-09-19T03:32:01;6.07;;;3.73;;
37483;SDS011;23337;52.212;9.926;2023-09-19T03:34:28;5.37;;;3.47;;
37483;SDS011;23337;52.212;9.926;2023-09-19T03:36:54;7.57;;;4.50;;
37483;SDS011;23337;52.212;9.926;2023-09-19T03:39:20;8.40;;;5.13;;
37483;SDS011;23337;52.212;9.926;2023-09-19T03:41:46;8.50;;;5.47;;
37483;SDS011;23337;52.212;9.926;2023-09-19T03:44:12;5.93;;;5.10;;
37483;SDS011;23337;52.212;9.926;2023-09-19T03:46:40;5.87;;;4.73;;
37483;SDS011;23337;52.212;9.926;2023-09-19T03:49:06;7.57;;;4.80;;
37483;SDS011;23337;52.212;9.926;2023-09-19T03:51:32;8.40;;;4.73;;
37483;SDS011;23337;52.212;9.926;2023-09-19T03:53:59;7.07;;;5.00;;
37483;SDS011;23337;52.212;9.926;2023-09-19T03:56:25;7.90;;;5.07;;
37483;SDS011;23337;52.212;9.926;2023-09-19T03:58:51;7.90;;;5.20;;
37483;SDS011;23337;52.212;9.926;2023-09-19T04:01:17;7.47;;;4.83;;
37483;SDS011;23337;52.212;9.926;2023-09-19T04:03:43;7.17;;;5.77;;
37483;SDS011;23337;52.212;9.926;2023-09-19T04:06:16;6.50;;;4.57;;
37483;SDS011;23337;52.212;9.926;2023-09-19T04:08:42;7.83;;;4.53;;
37483;SDS011;23337;52.212;9.926;2023-09-19T04:11:09;9.47;;;5.43;;
37483;SDS011;23337;52.212;9.926;2023-09-19T04:13:35;8.30;;;5.57;;
37483;SDS011;23337;52.212;9.926;2023-09-19T04:16:02;7.20;;;5.77;;
37483;SDS011;23337;52.212;9.926;2023-09-19T04:18:32;8.73;;;6.03;;
37483;SDS011;23337;52.212;9.926;2023-09-19T04:20:58;11.40;;;6.23;;
37483;SDS011;23337;52.212;9.926;2023-09-19T04:23:28;8.47;;;5.80;;
37483;SDS011;23337;52.212;9.926;2023-09-19T04:25:54;9.23;;;4.73;;
37483;SDS011;23337;52.212;9.926;2023-09-19T04:28:19;7.93;;;5.33;;
37483;SDS011;23337;52.212;9.926;2023-09-19T04:30:45;6.03;;;4.73;;
37483;SDS011;23337;52.212;9.926;2023-09-19T04:33:11;7.57;;;5.30;;
37483;SDS011;23337;52.212;9.926;2023-09-19T04:35:39;11.73;;;5.67;;
37483;SDS011;23337;52.212;9.926;2023-09-19T04:38:07;7.63;;;5.67;;
37483;SDS011;23337;52.212;9.926;2023-09-19T04:40:33;8.20;;;5.70;;
37483;SDS011;23337;52.212;9.926;2023-09-19T04:42:59;7.47;;;4.50;;
37483;SDS011;23337;52.212;9.926;2023-09-19T04:45:26;7.60;;;5.17;;
37483;SDS011;23337;52.212;9.926;2023-09-19T04:47:52;6.83;;;4.97;;
37483;SDS011;23337;52.212;9.926;2023-09-19T04:50:18;4.97;;;4.30;;
37483;SDS011;23337;52.212;9.926;2023-09-19T04:52:46;6.00;;;5.40;;
37483;SDS011;23337;52.212;9.926;2023-09-19T04:55:16;7.20;;;4.60;;
37483;SDS011;23337;52.212;9.926;2023-09-19T04:57:45;9.37;;;4.90;;
37483;SDS011;23337;52.212;9.926;2023-09-19T05:00:12;9.63;;;4.53;;
37483;SDS011;23337;52.212;9.926;2023-09-19T05:02:39;9.50;;;4.40;;
37483;SDS011;23337;52.212;9.926;2023-09-19T05:05:06;7.47;;;4.80;;
37483;SDS011;23337;52.212;9.926;2023-09-19T05:07:33;7.63;;;4.60;;
37483;SDS011;23337;52.212;9.926;2023-09-19T05:09:59;7.70;;;4.10;;
37483;SDS011;23337;52.212;9.926;2023-09-19T05:12:26;8.10;;;4.67;;
37483;SDS011;23337;52.212;9.926;2023-09-19T05:14:52;5.87;;;4.30;;
37483;SDS011;23337;52.212;9.926;2023-09-19T05:17:18;4.90;;;3.73;;
37483;SDS011;23337;52.212;9.926;2023-09-19T05:19:44;7.37;;;4.10;;
37483;SDS011;23337;52.212;9.926;2023-09-19T05:22:11;5.10;;;4.50;;
37483;SDS011;23337;52.212;9.926;2023-09-19T05:24:37;9.13;;;4.70;;
37483;SDS011;23337;52.212;9.926;2023-09-19T05:27:04;8.13;;;4.20;;
37483;SDS011;23337;52.212;9.926;2023-09-19T05:29:32;9.90;;;4.63;;
37483;SDS011;23337;52.212;9.926;2023-09-19T05:31:58;9.13;;;4.57;;
37483;SDS011;23337;52.212;9.926;2023-09-19T05:34:24;6.17;;;4.50;;
37483;SDS011;23337;52.212;9.926;2023-09-19T05:36:55;8.43;;;5.10;;
37483;SDS011;23337;52.212;9.926;2023-09-19T05:39:21;13.37;;;5.83;;
37483;SDS011;23337;52.212;9.926;2023-09-19T05:41:47;10.77;;;4.67;;
37483;SDS011;23337;52.212;9.926;2023-09-19T05:44:13;8.63;;;5.10;;
37483;SDS011;23337;52.212;9.926;2023-09-19T05:46:39;8.83;;;4.73;;
37483;SDS011;23337;52.212;9.926;2023-09-19T05:49:05;12.17;;;5.07;;
37483;SDS011;23337;52.212;9.926;2023-09-19T05:51:31;8.57;;;4.63;;
37483;SDS011;23337;52.212;9.926;2023-09-19T05:53:57;11.23;;;4.53;;
37483;SDS011;23337;52.212;9.926;2023-09-19T05:56:23;9.13;;;4.83;;
37483;SDS011;23337;52.212;9.926;2023-09-19T05:58:49;11.70;;;4.03;;
37483;SDS011;23337;52.212;9.926;2023-09-19T06:01:17;7.67;;;4.90;;
37483;SDS011;23337;52.212;9.926;2023-09-19T06:03:43;11.73;;;5.40;;
37483;SDS011;23337;52.212;9.926;2023-09-19T06:06:09;7.50;;;4.63;;
37483;SDS011;23337;52.212;9.926;2023-09-19T06:08:35;8.80;;;4.57;;
37483;SDS011;23337;52.212;9.926;2023-09-19T06:11:01;14.83;;;4.37;;
37483;SDS011;23337;52.212;9.926;2023-09-19T06:13:28;8.50;;;4.03;;
37483;SDS011;23337;52.212;9.926;2023-09-19T06:15:54;10.03;;;4.07;;
37483;SDS011;23337;52.212;9.926;2023-09-19T06:18:21;14.17;;;5.20;;
37483;SDS011;23337;52.212;9.926;2023-09-19T06:20:51;10.23;;;4.33;;
37483;SDS011;23337;52.212;9.926;2023-09-19T06:23:17;7.53;;;4.13;;
37483;SDS011;23337;52.212;9.926;2023-09-19T06:25:45;10.53;;;4.57;;
37483;SDS011;23337;52.212;9.926;2023-09-19T06:28:11;9.37;;;4.63;;
37483;SDS011;23337;52.212;9.926;2023-09-19T06:30:37;16.63;;;5.47;;
37483;SDS011;23337;52.212;9.926;2023-09-19T06:33:06;9.90;;;4.37;;
37483;SDS011;23337;52.212;9.926;2023-09-19T06:35:33;14.63;;;4.83;;
37483;SDS011;23337;52.212;9.926;2023-09-19T06:38:01;10.80;;;4.43;;
37483;SDS011;23337;52.212;9.926;2023-09-19T06:40:28;8.30;;;4.40;;
37483;SDS011;23337;52.212;9.926;2023-09-19T06:42:56;8.70;;;4.57;;
37483;SDS011;23337;52.212;9.926;2023-09-19T06:45:22;7.70;;;3.70;;
37483;SDS011;23337;52.212;9.926;2023-09-19T06:47:51;8.83;;;3.90;;
37483;SDS011;23337;52.212;9.926;2023-09-19T06:50:19;10.07;;;3.70;;
37483;SDS011;23337;52.212;9.926;2023-09-19T06:52:47;6.07;;;3.23;;
37483;SDS011;23337;52.212;9.926;2023-09-19T06:55:16;10.77;;;4.77;;
37483;SDS011;23337;52.212;9.926;2023-09-19T06:57:43;8.33;;;4.13;;
37483;SDS011;23337;52.212;9.926;2023-09-19T07:00:09;6.57;;;3.67;;
37483;SDS011;23337;52.212;9.926;2023-09-19T07:02:40;10.43;;;3.07;;
37483;SDS011;23337;52.212;9.926;2023-09-19T07:05:07;7.37;;;2.53;;
37483;SDS011;23337;52.212;9.926;2023-09-19T07:07:33;6.40;;;3.20;;
37483;SDS011;23337;52.212;9.926;2023-09-19T07:10:02;9.10;;;2.93;;
37483;SDS011;23337;52.212;9.926;2023-09-19T07:12:33;6.80;;;2.90;;
37483;SDS011;23337;52.212;9.926;2023-09-19T07:14:59;5.40;;;2.13;;
37483;SDS011;23337;52.212;9.926;2023-09-19T07:17:25;8.83;;;3.37;;
37483;SDS011;23337;52.212;9.926;2023-09-19T07:19:52;6.67;;;2.33;;
37483;SDS011;23337;52.212;9.926;2023-09-19T07:22:18;8.30;;;2.20;;
37483;SDS011;23337;52.212;9.926;2023-09-19T07:24:44;7.10;;;2.43;;
37483;SDS011;23337;52.212;9.926;2023-09-19T07:27:10;5.97;;;2.43;;
37483;SDS011;23337;52.212;9.926;2023-09-19T07:29:36;6.60;;;2.57;;
37483;SDS011;23337;52.212;9.926;2023-09-19T07:32:03;9.33;;;2.47;;
37483;SDS011;23337;52.212;9.926;2023-09-19T07:34:29;5.70;;;1.90;;
37483;SDS011;23337;52.212;9.926;2023-09-19T07:36:55;7.50;;;1.73;;
37483;SDS011;23337;52.212;9.926;2023-09-19T07:39:21;5.77;;;2.13;;
37483;SDS011;23337;52.212;9.926;2023-09-19T07:41:47;6.87;;;1.70;;
37483;SDS011;23337;52.212;9.926;2023-09-19T07:44:14;8.67;;;2.03;;
37483;SDS011;23337;52.212;9.926;2023-09-19T07:46:40;9.43;;;2.30;;
37483;SDS011;23337;52.212;9.926;2023-09-19T07:49:06;6.30;;;2.13;;
37483;SDS011;23337;52.212;9.926;2023-09-19T07:51:33;6.83;;;1.97;;
37483;SDS011;23337;52.212;9.926;2023-09-19T07:53:59;9.17;;;2.63;;
37483;SDS011;23337;52.212;9.926;2023-09-19T07:56:25;6.53;;;2.40;;
37483;SDS011;23337;52.212;9.926;2023-09-19T07:58:52;6.50;;;1.90;;
37483;SDS011;23337;52.212;9.926;2023-09-19T08:01:18;8.63;;;2.13;;
37483;SDS011;23337;52.212;9.926;2023-09-19T08:03:44;7.47;;;2.07;;
37483;SDS011;23337;52.212;9.926;2023-09-19T08:06:10;8.87;;;2.93;;
37483;SDS011;23337;52.212;9.926;2023-09-19T08:08:37;6.80;;;1.60;;
37483;SDS011;23337;52.212;9.926;2023-09-19T08:11:06;8.03;;;2.63;;
37483;SDS011;23337;52.212;9.926;2023-09-19T08:13:46;6.53;;;2.10;;
37483;SDS011;23337;52.212;9.926;2023-09-19T08:16:13;4.93;;;2.00;;
37483;SDS011;23337;52.212;9.926;2023-09-19T08:18:47;8.57;;;1.97;;
37483;SDS011;23337;52.212;9.926;2023-09-19T08:21:13;8.43;;;2.37;;
37483;SDS011;23337;52.212;9.926;2023-09-19T08:23:40;6.87;;;1.70;;
37483;SDS011;23337;52.212;9.926;2023-09-19T08:26:07;7.27;;;1.50;;
37483;SDS011;23337;52.212;9.926;2023-09-19T08:28:34;8.97;;;1.53;;
37483;SDS011;23337;52.212;9.926;2023-09-19T08:31:03;6.03;;;2.10;;
37483;SDS011;23337;52.212;9.926;2023-09-19T08:33:33;9.27;;;1.73;;
37483;SDS011;23337;52.212;9.926;2023-09-19T08:35:59;4.73;;;1.83;;
37483;SDS011;23337;52.212;9.926;2023-09-19T08:38:25;7.77;;;1.70;;
37483;SDS011;23337;52.212;9.926;2023-09-19T08:40:57;6.57;;;2.27;;
37483;SDS011;23337;52.212;9.926;2023-09-19T08:43:24;7.97;;;2.07;;
37483;SDS011;23337;52.212;9.926;2023-09-19T08:45:50;7.40;;;1.90;;
37483;SDS011;23337;52.212;9.926;2023-09-19T08:50:51;4.83;;;2.07;;
37483;SDS011;23337;52.212;9.926;2023-09-19T08:53:26;6.87;;;1.83;;
37483;SDS011;23337;52.212;9.926;2023-09-19T08:55:53;5.60;;;1.77;;
37483;SDS011;23337;52.212;9.926;2023-09-19T08:58:21;4.50;;;1.93;;
37483;SDS011;23337;52.212;9.926;2023-09-19T09:00:48;7.43;;;1.63;;
37483;SDS011;23337;52.212;9.926;2023-09-19T09:03:16;9.20;;;2.07;;
37483;SDS011;23337;52.212;9.926;2023-09-19T09:05:44;5.97;;;1.90;;
37483;SDS011;23337;52.212;9.926;2023-09-19T09:08:12;5.53;;;1.67;;
37483;SDS011;23337;52.212;9.926;2023-09-19T09:10:39;4.07;;;1.30;;
37483;SDS011;23337;52.212;9.926;2023-09-19T09:13:05;4.77;;;1.77;;
37483;SDS011;23337;52.212;9.926;2023-09-19T09:15:34;4.70;;;1.70;;
37483;SDS011;23337;52.212;9.926;2023-09-19T09:18:01;6.17;;;1.67;;
37483;SDS011;23337;52.212;9.926;2023-09-19T09:20:28;5.63;;;1.93;;
37483;SDS011;23337;52.212;9.926;2023-09-19T09:22:54;6.30;;;1.80;;
37483;SDS011;23337;52.212;9.926;2023-09-19T09:25:25;9.93;;;2.07;;
37483;SDS011;23337;52.212;9.926;2023-09-19T09:28:11;4.90;;;1.33;;
37483;SDS011;23337;52.212;9.926;2023-09-19T09:30:37;4.73;;;1.77;;
37483;SDS011;23337;52.212;9.926;2023-09-19T09:33:10;6.30;;;2.37;;
37483;SDS011;23337;52.212;9.926;2023-09-19T09:35:36;7.13;;;1.63;;
37483;SDS011;23337;52.212;9.926;2023-09-19T09:38:06;6.20;;;1.57;;
37483;SDS011;23337;52.212;9.926;2023-09-19T09:41:08;4.97;;;1.93;;
37483;SDS011;23337;52.212;9.926;2023-09-19T09:43:35;8.63;;;1.80;;
37483;SDS011;23337;52.212;9.926;2023-09-19T09:46:18;7.37;;;1.60;;
37483;SDS011;23337;52.212;9.926;2023-09-19T09:48:47;3.87;;;1.40;;
37483;SDS011;23337;52.212;9.926;2023-09-19T09:51:33;6.50;;;1.40;;
37483;SDS011;23337;52.212;9.926;2023-09-19T09:54:12;7.50;;;2.03;;
37483;SDS011;23337;52.212;9.926;2023-09-19T09:57:12;10.67;;;1.80;;
37483;SDS011;23337;52.212;9.926;2023-09-19T09:59:49;8.80;;;2.20;;
37483;SDS011;23337;52.212;9.926;2023-09-19T10:02:25;8.13;;;2.13;;
37483;SDS011;23337;52.212;9.926;2023-09-19T10:04:58;3.03;;;1.73;;
37483;SDS011;23337;52.212;9.926;2023-09-19T10:07:35;6.20;;;2.20;;
37483;SDS011;23337;52.212;9.926;2023-09-19T10:10:05;5.43;;;1.83;;
37483;SDS011;23337;52.212;9.926;2023-09-19T10:12:44;6.47;;;1.73;;
37483;SDS011;23337;52.212;9.926;2023-09-19T10:15:11;6.63;;;1.90;;
37483;SDS011;23337;52.212;9.926;2023-09-19T10:17:44;5.53;;;2.10;;
37483;SDS011;23337;52.212;9.926;2023-09-19T10:20:14;7.63;;;1.97;;
37483;SDS011;23337;52.212;9.926;2023-09-19T10:22:55;5.90;;;1.60;;
37483;SDS011;23337;52.212;9.926;2023-09-19T10:25:26;6.23;;;1.43;;
37483;SDS011;23337;52.212;9.926;2023-09-19T10:28:01;4.63;;;2.30;;
37483;SDS011;23337;52.212;9.926;2023-09-19T10:30:29;6.10;;;1.57;;
37483;SDS011;23337;52.212;9.926;2023-09-19T10:33:03;7.63;;;2.13;;
37483;SDS011;23337;52.212;9.926;2023-09-19T10:35:30;8.00;;;2.23;;
37483;SDS011;23337;52.212;9.926;2023-09-19T10:37:59;3.70;;;1.67;;
37483;SDS011;23337;52.212;9.926;2023-09-19T10:40:26;5.50;;;1.80;;
37483;SDS011;23337;52.212;9.926;2023-09-19T10:43:05;4.93;;;2.07;;
37483;SDS011;23337;52.212;9.926;2023-09-19T10:45:33;6.13;;;1.77;;
37483;SDS011;23337;52.212;9.926;2023-09-19T10:48:00;8.53;;;2.30;;
37483;SDS011;23337;52.212;9.926;2023-09-19T10:50:28;4.67;;;2.00;;
37483;SDS011;23337;52.212;9.926;2023-09-19T10:52:56;5.97;;;1.73;;
37483;SDS011;23337;52.212;9.926;2023-09-19T10:55:29;7.63;;;2.20;;
37483;SDS011;23337;52.212;9.926;2023-09-19T10:57:56;4.13;;;1.97;;
37483;SDS011;23337;52.212;9.926;2023-09-19T11:00:54;4.60;;;1.77;;
37483;SDS011;23337;52.212;9.926;2023-09-19T11:03:20;6.80;;;2.13;;
37483;SDS011;23337;52.212;9.926;2023-09-19T11:06:15;4.90;;;1.70;;
37483;SDS011;23337;52.212;9.926;2023-09-19T11:17:29;3.60;;;1.83;;
37483;SDS011;23337;52.212;9.926;2023-09-19T11:22:25;5.63;;;2.10;;
37483;SDS011;23337;52.212;9.926;2023-09-19T11:24:51;6.07;;;2.30;;
37483;SDS011;23337;52.212;9.926;2023-09-19T11:27:21;8.03;;;1.93;;
37483;SDS011;23337;52.212;9.926;2023-09-19T11:29:46;8.30;;;2.10;;
37483;SDS011;23337;52.212;9.926;2023-09-19T11:32:14;4.77;;;1.77;;
37483;SDS011;23337;52.212;9.926;2023-09-19T11:34:42;7.23;;;2.77;;
37483;SDS011;23337;52.212;9.926;2023-09-19T11:39:39;8.03;;;2.80;;
37483;SDS011;23337;52.212;9.926;2023-09-19T11:44:52;4.77;;;1.70;;
37483;SDS011;23337;52.212;9.926;2023-09-19T11:47:21;4.70;;;2.30;;
37483;SDS011;23337;52.212;9.926;2023-09-19T11:49:50;5.50;;;1.80;;
37483;SDS011;23337;52.212;9.926;2023-09-19T11:52:21;7.50;;;2.43;;
37483;SDS011;23337;52.212;9.926;2023-09-19T11:54:53;9.60;;;2.33;;
37483;SDS011;23337;52.212;9.926;2023-09-19T11:57:20;5.67;;;2.30;;
37483;SDS011;23337;52.212;9.926;2023-09-19T11:59:46;5.97;;;1.87;;
37483;SDS011;23337;52.212;9.926;2023-09-19T12:02:13;7.17;;;2.33;;
37483;SDS011;23337;52.212;9.926;2023-09-19T12:04:43;5.97;;;2.30;;
37483;SDS011;23337;52.212;9.926;2023-09-19T12:07:15;5.40;;;2.20;;
37483;SDS011;23337;52.212;9.926;2023-09-19T12:09:42;7.70;;;1.77;;
37483;SDS011;23337;52.212;9.926;2023-09-19T12:12:09;6.50;;;2.27;;
37483;SDS011;23337;52.212;9.926;2023-09-19T12:14:37;5.83;;;2.57;;
37483;SDS011;23337;52.212;9.926;2023-09-19T12:17:04;7.73;;;1.90;;
37483;SDS011;23337;52.212;9.926;2023-09-19T12:19:30;6.67;;;2.53;;
37483;SDS011;23337;52.212;9.926;2023-09-19T12:24:23;7.23;;;2.40;;
37483;SDS011;23337;52.212;9.926;2023-09-19T12:26:51;4.33;;;2.17;;
37483;SDS011;23337;52.212;9.926;2023-09-19T12:29:18;5.77;;;2.23;;
37483;SDS011;23337;52.212;9.926;2023-09-19T12:31:54;6.40;;;2.20;;
37483;SDS011;23337;52.212;9.926;2023-09-19T12:34:28;3.10;;;1.67;;
37483;SDS011;23337;52.212;9.926;2023-09-19T12:39:48;3.93;;;2.07;;
37483;SDS011;23337;52.212;9.926;2023-09-19T12:42:17;5.50;;;1.83;;
37483;SDS011;23337;52.212;9.926;2023-09-19T12:44:44;5.33;;;2.13;;
37483;SDS011;23337;52.212;9.926;2023-09-19T12:47:10;6.00;;;2.23;;
37483;SDS011;23337;52.212;9.926;2023-09-19T12:49:54;4.63;;;2.00;;
37483;SDS011;23337;52.212;9.926;2023-09-19T12:52:22;7.37;;;1.90;;
37483;SDS011;23337;52.212;9.926;2023-09-19T12:54:51;7.53;;;2.43;;
37483;SDS011;23337;52.212;9.926;2023-09-19T12:57:23;6.90;;;2.87;;
37483;SDS011;23337;52.212;9.926;2023-09-19T12:59:52;6.63;;;2.10;;
37483;SDS011;23337;52.212;9.926;2023-09-19T13:02:18;7.00;;;2.30;;
37483;SDS011;23337;52.212;9.926;2023-09-19T13:04:54;5.30;;;2.90;;
37483;SDS011;23337;52.212;9.926;2023-09-19T13:07:43;6.97;;;3.27;;
37483;SDS011;23337;52.212;9.926;2023-09-19T13:10:10;4.80;;;2.13;;
37483;SDS011;23337;52.212;9.926;2023-09-19T13:12:40;7.10;;;2.10;;
37483;SDS011;23337;52.212;9.926;2023-09-19T13:15:09;10.97;;;2.27;;
37483;SDS011;23337;52.212;9.926;2023-09-19T13:17:43;4.27;;;2.10;;
37483;SDS011;23337;52.212;9.926;2023-09-19T13:20:20;4.70;;;2.60;;
37483;SDS011;23337;52.212;9.926;2023-09-19T13:22:53;4.80;;;2.13;;
37483;SDS011;23337;52.212;9.926;2023-09-19T13:25:23;5.67;;;2.20;;
37483;SDS011;23337;52.212;9.926;2023-09-19T13:27:51;6.20;;;2.00;;
37483;SDS011;23337;52.212;9.926;2023-09-19T13:30:19;8.00;;;2.63;;
37483;SDS011;23337;52.212;9.926;2023-09-19T13:32:45;4.13;;;2.00;;
37483;SDS011;23337;52.212;9.926;2023-09-19T13:35:12;6.00;;;1.90;;
37483;SDS011;23337;52.212;9.926;2023-09-19T13:37:38;6.63;;;2.20;;
37483;SDS011;23337;52.212;9.926;2023-09-19T13:40:09;6.50;;;2.57;;
37483;SDS011;23337;52.212;9.926;2023-09-19T13:42:36;5.57;;;1.93;;
37483;SDS011;23337;52.212;9.926;2023-09-19T13:45:05;5.00;;;2.50;;
37483;SDS011;23337;52.212;9.926;2023-09-19T13:47:35;5.50;;;2.70;;
37483;SDS011;23337;52.212;9.926;2023-09-19T13:50:03;4.50;;;1.87;;
37483;SDS011;23337;52.212;9.926;2023-09-19T13:52:29;5.90;;;2.00;;
37483;SDS011;23337;52.212;9.926;2023-09-19T13:54:56;6.80;;;2.40;;
37483;SDS011;23337;52.212;9.926;2023-09-19T13:57:22;5.37;;;2.27;;
37483;SDS011;23337;52.212;9.926;2023-09-19T13:59:48;7.03;;;2.23;;
37483;SDS011;23337;52.212;9.926;2023-09-19T14:02:14;5.57;;;2.40;;
37483;SDS011;23337;52.212;9.926;2023-09-19T14:04:43;8.30;;;2.30;;
37483;SDS011;23337;52.212;9.926;2023-09-19T14:07:09;4.90;;;2.30;;
37483;SDS011;23337;52.212;9.926;2023-09-19T14:09:35;4.90;;;2.20;;
37483;SDS011;23337;52.212;9.926;2023-09-19T14:12:01;3.83;;;1.90;;
37483;SDS011;23337;52.212;9.926;2023-09-19T14:14:27;6.43;;;2.10;;
37483;SDS011;23337;52.212;9.926;2023-09-19T14:16:53;2.43;;;1.53;;
37483;SDS011;23337;52.212;9.926;2023-09-19T14:19:20;4.90;;;1.73;;
37483;SDS011;23337;52.212;9.926;2023-09-19T14:21:46;7.23;;;2.00;;
37483;SDS011;23337;52.212;9.926;2023-09-19T14:24:18;4.13;;;2.10;;
37483;SDS011;23337;52.212;9.926;2023-09-19T14:26:45;4.83;;;2.10;;
37483;SDS011;23337;52.212;9.926;2023-09-19T14:29:11;4.23;;;1.90;;
37483;SDS011;23337;52.212;9.926;2023-09-19T14:31:38;6.13;;;2.10;;
37483;SDS011;23337;52.212;9.926;2023-09-19T14:34:05;4.27;;;2.20;;
37483;SDS011;23337;52.212;9.926;2023-09-19T14:36:31;4.67;;;1.83;;
37483;SDS011;23337;52.212;9.926;2023-09-19T14:38:58;3.50;;;1.70;;
37483;SDS011;23337;52.212;9.926;2023-09-19T14:41:24;7.40;;;2.97;;
37483;SDS011;23337;52.212;9.926;2023-09-19T14:43:51;4.20;;;2.07;;
37483;SDS011;23337;52.212;9.926;2023-09-19T14:46:17;3.50;;;1.97;;
37483;SDS011;23337;52.212;9.926;2023-09-19T14:48:44;4.07;;;2.13;;
37483;SDS011;23337;52.212;9.926;2023-09-19T14:51:13;3.93;;;1.63;;
37483;SDS011;23337;52.212;9.926;2023-09-19T14:53:40;2.40;;;1.70;;
37483;SDS011;23337;52.212;9.926;2023-09-19T14:56:09;2.67;;;2.00;;
37483;SDS011;23337;52.212;9.926;2023-09-19T14:58:36;4.27;;;1.63;;
37483;SDS011;23337;52.212;9.926;2023-09-19T15:01:04;5.47;;;2.13;;
37483;SDS011;23337;52.212;9.926;2023-09-19T15:03:31;3.83;;;1.67;;
37483;SDS011;23337;52.212;9.926;2023-09-19T15:06:01;2.90;;;1.27;;
37483;SDS011;23337;52.212;9.926;2023-09-19T15:08:27;3.27;;;1.27;;
37483;SDS011;23337;52.212;9.926;2023-09-19T15:10:53;3.83;;;1.63;;
37483;SDS011;23337;52.212;9.926;2023-09-19T15:13:20;3.00;;;1.50;;
37483;SDS011;23337;52.212;9.926;2023-09-19T15:15:46;5.43;;;1.60;;
37483;SDS011;23337;52.212;9.926;2023-09-19T15:18:13;4.60;;;1.50;;
37483;SDS011;23337;52.212;9.926;2023-09-19T15:20:45;4.90;;;1.90;;
37483;SDS011;23337;52.212;9.926;2023-09-19T15:23:12;3.43;;;1.80;;
37483;SDS011;23337;52.212;9.926;2023-09-19T15:25:38;2.73;;;1.27;;
37483;SDS011;23337;52.212;9.926;2023-09-19T15:28:05;5.03;;;1.60;;
37483;SDS011;23337;52.212;9.926;2023-09-19T15:30:37;2.90;;;1.60;;